Norwichtown, Connecticut
Current Conditions -  °F | °C
As of 9:52 AM on Wednesday 22 Oct 2014 (Local Time) from KIJD Reporting Station
Overcast Overcast  
Wind Chill: 56°   Ceiling: 1200
Heat Index: 56°   Visibility: 10mi
Dew Point: 50°   Wind: 13mph
Humidity: 80%   Direction: 30°NNE
Pressure: 29.97"   Gusts: NA
Location:  41.5523°N, 72.0921°W
Report Text: KIJD 221352Z AUTO 03011KT 10SM OVC012 13/10 A2997 RMK AO2 SLP149 T01330100
Loading
Personal Weather Stations






























Interactive Weather Map
Tropical Storm Tracking
New forecast layout! Learn more

10-Day Weather Forecast

Advertisements
Track Severe Weather on mobile